Latest Weather Observations for Barimunya

IDW60801

Issued at 1:32 pm WST Monday 27 April 2015 (issued every 30 minutes, with the page automatically refreshed every 10 minutes)

About weather observations | Map of weather stations | Latest weather observations for WA | Other Formats
Station Details ID: 505053 Name: BARIMUNYA Lat: -22.67 Lon: 119.16 Height: 629.17 m
Data from the previous 72 hours. | See also: Recent months for locations in Western Australia
Date/Time
WST
Temp
°C
App
Temp
°C
Dew
Point
Rel
Hum
%
Delta-T
°C
Wind Press
QNH
hPa
Press
MSL
hPa
Rain
since 9 am
mm
Dir
 
Spd
km/h
Gust
km/h
Spd
kts
Gust
kts
27/01:30pm 24.9 20.3 3.5 25 10.8 ESE 17 30 9 16 1020.2 1016.4 0.0
27/01:00pm 25.0 19.8 3.6 25 10.8 E 20 30 11 16 1020.5 1016.7 0.0
27/12:30pm 24.0 19.2 4.4 28 10.0 E 19 26 10 14 1021.0 1017.2 0.0
27/12:00pm 24.2 19.9 5.1 29 9.9 ESE 17 24 9 13 1021.6 1017.8 0.0
27/11:30am 23.3 18.5 4.8 30 9.5 ESE 19 28 10 15 1021.9 1018.1 0.0
27/11:00am 22.8 18.4 4.8 31 9.2 E 17 26 9 14 1022.5 1018.7 0.0
27/10:30am 22.0 16.8 3.6 30 9.2 ESE 20 28 11 15 1022.7 1018.9 0.0
27/10:00am 21.4 15.9 4.0 32 8.7 ESE 22 30 12 16 1023.2 1019.4 0.0
27/09:30am 20.8 14.9 4.0 33 8.4 ESE 24 32 13 17 1023.3 1019.5 0.0
27/09:00am 19.9 14.1 4.4 36 7.7 ESE 24 30 13 16 1023.4 1019.6 0.4
27/08:30am 18.7 13.1 3.7 37 7.3 ESE 22 30 12 16 1023.4 1019.6 0.4
27/08:00am 18.5 12.9 3.6 37 7.2 ESE 22 32 12 17 1023.1 1019.3 0.4
27/07:30am 19.1 13.5 3.3 35 7.6 ESE 22 30 12 16 1022.9 1019.1 0.4
27/07:00am 17.9 12.8 3.0 37 7.1 ESE 19 28 10 15 1022.7 1018.9 0.4
27/06:30am 17.3 12.0 2.9 38 6.8 ESE 20 28 11 15 1022.3 1018.6 0.4
27/06:00am 17.3 11.7 3.2 39 6.7 ESE 22 32 12 17 1022.1 1018.3 0.4
27/05:30am 17.4 12.2 3.3 39 6.7 ESE 20 28 11 15 1021.9 1018.1 0.4
27/05:00am 17.1 11.9 3.8 41 6.4 ESE 20 26 11 14 1021.6 1017.8 0.4
27/04:30am 17.3 12.1 3.6 40 6.6 ESE 20 28 11 15 1021.4 1017.6 0.4
27/04:00am 17.3 12.7 3.6 40 6.6 ESE 17 22 9 12 1021.2 1017.4 0.4
27/03:30am 17.7 12.4 3.2 38 6.9 ESE 20 26 11 14 1021.1 1017.3 0.4
27/03:00am 18.1 13.0 3.2 37 7.1 ESE 19 26 10 14 1020.9 1017.1 0.4
27/02:30am 18.3 13.6 3.4 37 7.2 ESE 17 22 9 12 1020.8 1016.9 0.4
27/02:00am 18.6 13.9 3.3 36 7.4 SE 17 24 9 13 1020.9 1017.1 0.4
27/01:30am 19.1 15.2 3.3 35 7.7 ESE 13 19 7 10 1021.1 1017.3 0.4
27/01:00am 19.1 15.6 3.3 35 7.6 ESE 11 17 6 9 1021.5 1017.7 0.4
27/12:30am 19.0 15.5 3.6 36 7.5 ESE 11 15 6 8 1021.5 1017.7 0.4
27/12:00am 19.3 15.8 3.5 35 7.7 ESE 11 15 6 8 1021.7 1017.9 0.4
 
Date/Time
WST
Temp
°C
App
Temp
°C
Dew
Point
Rel
Hum
%
Delta-T
°C
Wind Press
QNH
hPa
Press
MSL
hPa
Rain
since 9 am
mm
Dir
 
Spd
km/h
Gust
km/h
Spd
kts
Gust
kts
26/11:30pm 19.6 15.3 3.3 34 7.9 ESE 15 20 8 11 1021.7 1017.9 0.4
26/11:00pm 19.5 15.7 4.0 36 7.6 E 13 17 7 9 1021.9 1018.1 0.4
26/10:30pm 19.1 16.1 5.9 42 6.7 E 11 13 6 7 1022.0 1018.2 0.4
26/10:00pm 18.8 16.6 6.3 44 6.4 ESE 7 11 4 6 1022.2 1018.5 0.4
26/09:30pm 19.7 16.7 6.1 41 7.0 ESE 11 13 6 7 1022.2 1018.5 0.4
26/09:00pm 19.3 17.2 6.8 44 6.5 E 7 11 4 6 1022.3 1018.6 0.4
26/08:30pm 19.8 17.9 7.5 45 6.5 ESE 7 11 4 6 1022.3 1018.6 0.4
26/08:00pm 20.3 18.2 6.6 41 7.1 ESE 7 11 4 6 1022.2 1018.5 0.4
26/07:30pm 20.8 18.1 5.6 37 7.8 ESE 9 11 5 6 1021.9 1018.1 0.4
26/07:00pm 21.0 18.5 6.5 39 7.5 E 9 11 5 6 1021.4 1017.6 0.4
26/06:30pm 21.8 19.2 6.1 36 8.2 E 9 13 5 7 1020.9 1017.1 0.4
26/06:00pm 22.8 19.2 4.8 31 9.2 ESE 13 17 7 9 1020.4 1016.6 0.4
26/05:30pm 23.6 19.1 4.0 28 9.9 ESE 17 22 9 12 1020.2 1016.4 0.4
26/05:00pm 24.5 19.1 4.3 27 10.3 ESE 22 28 12 15 1019.8 1016.0 0.4
26/04:30pm 24.9 20.0 4.1 26 10.6 SE 19 26 10 14 1019.6 1015.8 0.4
26/04:00pm 25.1 20.0 4.3 26 10.7 SE 20 28 11 15 1019.4 1015.6 0.4
26/03:30pm 25.2 19.9 4.9 27 10.6 SE 22 30 12 16 1019.3 1015.4 0.4
26/03:00pm 24.9 20.6 5.2 28 10.3 ESE 17 24 9 13 1019.1 1015.2 0.4
26/02:30pm 25.6 21.3 5.2 27 10.7 ESE 17 26 9 14 1019.3 1015.4 0.0
26/02:00pm 24.4 19.7 5.2 29 10.0 E 19 30 10 16 1019.3 1015.4 0.0
26/01:30pm 24.1 19.9 5.5 30 9.7 E 17 26 9 14 1019.5 1015.7 0.0
26/01:00pm 24.0 19.8 5.8 31 9.5 E 17 22 9 12 1019.9 1016.1 0.0
26/12:30pm 22.7 17.7 4.7 31 9.2 ESE 20 26 11 14 1020.4 1016.6 0.0
26/12:00pm 22.1 17.4 5.1 33 8.7 E 19 28 10 15 1021.0 1017.2 0.0
26/11:30am 21.8 16.9 5.3 34 8.5 ESE 20 30 11 16 1021.2 1017.4 0.0
26/11:00am 20.7 15.4 5.1 36 7.9 ESE 22 30 12 16 1021.6 1017.8 0.0
26/10:30am 19.7 14.0 5.0 38 7.4 ESE 24 30 13 16 1022.2 1018.5 0.0
26/10:00am 19.0 13.2 4.4 38 7.2 ESE 24 28 13 15 1022.7 1018.9 0.0
26/09:30am 18.3 12.4 4.1 39 7.0 SE 24 35 13 19 1022.6 1018.8 0.0
26/09:00am 17.1 10.7 3.4 40 6.5 SE 26 35 14 19 1022.3 1018.6 0.0
26/08:30am 16.3 10.0 3.7 43 6.0 SE 26 35 14 19 1022.3 1018.6 0.0
26/08:00am 15.7 9.5 4.1 46 5.6 SE 26 32 14 17 1022.1 1018.3 0.0
26/07:30am 15.5 9.5 3.6 45 5.6 ESE 24 32 13 17 1021.9 1018.1 0.0
26/07:00am 15.3 9.4 3.8 46 5.5 ESE 24 32 13 17 1021.8 1018.0 0.0
26/06:30am 15.3 9.3 3.5 45 5.6 ESE 24 32 13 17 1021.4 1017.6 0.0
26/06:00am 15.5 9.5 3.3 44 5.7 ESE 24 35 13 19 1021.4 1017.6 0.0
26/05:30am 15.8 9.8 3.3 43 5.9 ESE 24 35 13 19 1021.1 1017.3 0.0
26/05:00am 15.9 9.9 3.4 43 5.9 ESE 24 32 13 17 1020.8 1016.9 0.0
26/04:30am 16.0 10.1 3.8 44 5.8 ESE 24 32 13 17 1020.8 1016.9 0.0
26/04:00am 16.0 10.5 3.8 44 5.8 SE 22 28 12 15 1020.8 1016.9 0.0
26/03:30am 16.2 10.7 3.9 44 5.9 SE 22 28 12 15 1020.6 1016.8 0.0
26/03:00am 16.2 10.7 3.9 44 5.9 SE 22 30 12 16 1020.8 1016.9 0.0
26/02:30am 16.7 11.2 4.1 43 6.1 SE 22 28 12 15 1020.9 1017.1 0.0
26/02:00am 16.9 12.0 4.3 43 6.1 SE 19 24 10 13 1021.0 1017.2 0.0
26/01:30am 17.4 11.8 3.7 40 6.6 ESE 22 30 12 16 1020.8 1016.9 0.0
26/01:00am 17.5 12.6 4.1 41 6.5 ESE 19 24 10 13 1021.0 1017.2 0.0
26/12:30am 18.2 13.7 4.4 40 6.8 ESE 17 28 9 15 1021.0 1017.2 0.0
26/12:00am 18.7 13.7 4.8 40 6.9 ESE 20 28 11 15 1020.9 1017.1 0.0
 
Date/Time
WST
Temp
°C
App
Temp
°C
Dew
Point
Rel
Hum
%
Delta-T
°C
Wind Press
QNH
hPa
Press
MSL
hPa
Rain
since 9 am
mm
Dir
 
Spd
km/h
Gust
km/h
Spd
kts
Gust
kts
25/11:30pm 19.2 14.2 4.6 38 7.3 ESE 20 30 11 16 1021.1 1017.3 0.0
25/11:00pm 19.3 15.2 6.1 42 6.7 ESE 17 22 9 12 1021.2 1017.4 0.0
25/10:30pm 19.1 15.2 6.9 45 6.3 SE 17 24 9 13 1021.2 1017.4 0.0
25/10:00pm 19.3 15.5 7.4 46 6.2 SE 17 20 9 11 1021.2 1017.4 0.0
25/09:30pm 20.3 16.4 7.0 42 7.0 ESE 17 22 9 12 1021.2 1017.4 0.0
25/09:00pm 20.2 16.6 6.9 42 6.9 ESE 15 20 8 11 1021.2 1017.4 0.0
25/08:30pm 20.7 16.6 6.3 39 7.5 E 17 24 9 13 1021.1 1017.3 0.0
25/08:00pm 20.9 17.7 6.8 40 7.4 ESE 13 17 7 9 1020.6 1016.8 0.0
25/07:30pm 21.0 17.1 7.3 41 7.3 ESE 17 24 9 13 1020.3 1016.5 0.0
25/07:00pm 21.1 18.0 7.3 41 7.3 ESE 13 17 7 9 1020.1 1016.3 0.0
25/06:30pm 21.1 18.6 8.0 43 7.0 ESE 11 15 6 8 1019.7 1015.9 0.0
25/06:00pm 21.0 18.5 8.0 43 7.0 E 11 15 6 8 1019.5 1015.7 0.0
25/05:30pm 21.7 18.3 7.5 40 7.6 ESE 15 20 8 11 1019.2 1015.3 0.0
25/05:00pm 22.0 18.2 7.4 39 7.8 ESE 17 22 9 12 1018.8 1015.0 0.0
25/04:30pm 22.2 18.6 8.3 41 7.5 E 17 22 9 12 1018.6 1014.8 0.0
25/04:00pm 22.2 17.8 7.2 38 8.0 ESE 20 30 11 16 1018.5 1014.7 0.0
25/03:30pm 22.2 17.8 7.6 39 7.8 E 20 26 11 14 1018.4 1014.6 0.0
25/03:00pm 22.3 18.0 7.7 39 7.8 ESE 20 28 11 15 1018.5 1014.7 0.0
25/02:30pm 22.0 17.5 7.0 38 7.9 ESE 20 32 11 17 1018.7 1014.9 0.0
25/02:00pm 22.0 17.7 7.8 40 7.6 ESE 20 28 11 15 1018.8 1015.0 0.0
25/01:30pm 21.4 16.3 7.6 41 7.4 SE 24 32 13 17 1018.9 1015.1 0.0
25/01:00pm 20.4 15.5 7.1 42 7.0 ESE 22 32 12 17 1019.4 1015.6 0.0
25/12:30pm 19.8 15.4 7.2 44 6.6 SE 20 30 11 16 1019.6 1015.8 0.0
25/12:00pm 19.6 14.9 7.7 46 6.3 ESE 22 32 12 17 1020.1 1016.3 0.0
25/11:30am 19.6 15.4 8.3 48 6.0 ESE 20 30 11 16 1020.5 1016.7 0.0
25/11:00am 18.5 14.2 7.9 50 5.6 ESE 20 30 11 16 1021.1 1017.3 0.0
25/10:30am 19.0 13.6 8.1 49 5.8 ESE 26 33 14 18 1021.3 1017.5 0.0
25/10:00am 17.8 11.9 7.5 51 5.4 ESE 28 35 15 19 1021.3 1017.5 0.0
25/09:30am 16.7 10.5 7.9 56 4.6 ESE 30 37 16 20 1021.5 1017.7 0.0
25/09:00am 16.5 10.3 8.0 57 4.4 ESE 30 39 16 21 1021.5 1017.7 0.0
25/08:30am 15.6 8.9 7.4 58 4.2 SE 32 43 17 23 1021.4 1017.6 0.0
25/08:00am 15.0 8.7 7.3 60 3.9 SE 30 44 16 24 1021.0 1017.2 0.0
25/07:30am 14.5 7.3 7.8 64 3.4 SE 35 44 19 24 1020.5 1016.7 0.0
25/07:00am 14.1 7.5 7.9 66 3.2 ESE 32 44 17 24 1020.3 1016.5 0.0
25/06:30am 14.1 7.9 7.9 66 3.2 ESE 30 39 16 21 1019.9 1016.1 0.0
25/06:00am 14.3 8.9 8.0 66 3.2 SE 26 37 14 20 1019.9 1016.1 0.0
25/05:30am 14.5 8.7 8.0 65 3.4 SE 28 41 15 22 1019.6 1015.8 0.0
25/05:00am 14.8 8.7 8.1 64 3.5 ESE 30 39 16 21 1019.3 1015.4 0.0
25/04:30am 15.0 9.7 8.3 64 3.5 SE 26 35 14 19 1019.3 1015.4 0.0
25/04:00am 15.4 9.7 8.4 63 3.7 SE 28 35 15 19 1018.9 1015.1 0.0
25/03:30am 15.8 9.7 8.3 61 3.9 ESE 30 39 16 21 1018.8 1015.0 0.0
25/03:00am 16.2 10.5 8.2 59 4.2 SE 28 35 15 19 1019.1 1015.2 0.0
25/02:30am 16.5 11.5 8.2 58 4.4 SE 24 32 13 17 1019.2 1015.3 0.0
25/02:00am 17.0 12.7 7.9 55 4.7 SE 20 30 11 16 1019.2 1015.3 0.0
25/01:30am 17.4 13.1 7.7 53 5.1 ESE 20 30 11 16 1019.3 1015.4 0.0
25/01:00am 17.8 12.0 8.1 53 5.1 ESE 28 43 15 23 1018.9 1015.1 0.0
25/12:30am 18.2 12.8 8.2 52 5.3 ESE 26 39 14 21 1019.3 1015.4 0.0
25/12:00am 18.5 13.8 7.9 50 5.6 ESE 22 35 12 19 1019.5 1015.7 0.0
 
Date/Time
WST
Temp
°C
App
Temp
°C
Dew
Point
Rel
Hum
%
Delta-T
°C
Wind Press
QNH
hPa
Press
MSL
hPa
Rain
since 9 am
mm
Dir
 
Spd
km/h
Gust
km/h
Spd
kts
Gust
kts
24/11:30pm 18.8 13.8 7.9 49 5.8 ESE 24 35 13 19 1019.5 1015.7 0.0
24/11:00pm 19.5 14.0 7.6 46 6.3 ESE 26 39 14 21 1019.4 1015.6 0.0
24/10:30pm 19.5 14.8 7.6 46 6.3 ESE 22 30 12 16 1019.5 1015.7 0.0
24/10:00pm 19.5 15.5 8.2 48 6.0 SE 19 26 10 14 1019.5 1015.7 0.0
24/09:30pm 19.9 16.0 8.6 48 6.1 SE 19 26 10 14 1019.5 1015.7 0.0
24/09:00pm 19.9 16.2 9.5 51 5.7 SE 19 24 10 13 1019.3 1015.4 0.0
24/08:30pm 20.6 17.2 9.2 48 6.2 ESE 17 20 9 11 1019.3 1015.4 0.0
24/08:00pm 21.2 17.6 8.5 44 6.9 ESE 17 24 9 13 1019.2 1015.3 0.0
24/07:30pm 21.5 17.6 8.7 44 7.0 E 19 26 10 14 1018.8 1015.0 0.0
24/07:00pm 21.7 18.2 8.9 44 7.0 ESE 17 24 9 13 1018.7 1014.9 0.0
24/06:30pm 21.6 18.3 9.5 46 6.7 ESE 17 22 9 12 1018.6 1014.8 0.0
24/06:00pm 21.9 18.2 9.4 45 6.9 ESE 19 26 10 14 1018.2 1014.4 0.0
24/05:30pm 22.2 18.6 9.7 45 7.0 ESE 19 26 10 14 1017.8 1013.9 0.0
24/05:00pm 22.4 18.3 10.2 46 6.9 ESE 22 32 12 17 1017.5 1013.6 0.0
24/04:30pm 22.5 18.2 10.9 48 6.6 ESE 24 33 13 18 1017.4 1013.5 0.0
24/04:00pm 22.6 18.3 10.7 47 6.7 ESE 24 32 13 17 1017.4 1013.5 0.0
24/03:30pm 22.8 18.8 10.6 46 6.9 ESE 22 30 12 16 1017.6 1013.7 0.0
24/03:00pm 22.9 17.8 10.7 46 6.9 ESE 28 35 15 19 1017.5 1013.6 0.0
24/02:30pm 23.0 18.9 10.1 44 7.3 E 22 30 12 16 1017.4 1013.5 0.0
24/02:00pm 22.8 18.3 9.9 44 7.2 ESE 24 33 13 18 1017.4 1013.5 0.0

Other Formats:

Comma delimited format used in spreadsheet applications
http://www.bom.gov.au/fwo/IDW60801/IDW60801.99313.axf

JavaScript Object Notation format (JSON) in row-major order
http://www.bom.gov.au/fwo/IDW60801/IDW60801.99313.json